sensor_id;sensor_type;location;lat;lon;timestamp;pressure;altitude;pressure_sealevel;temperature;humidity
9717;BME280;4897;43.570;27.832;2023-01-25T00:00:28;100619.50;;;0.48;100.00
9717;BME280;4897;43.570;27.832;2023-01-25T00:02:55;100589.91;;;0.39;100.00
9717;BME280;4897;43.570;27.832;2023-01-25T00:05:22;100608.09;;;0.49;100.00
9717;BME280;4897;43.570;27.832;2023-01-25T00:07:48;100563.78;;;0.31;100.00
9717;BME280;4897;43.570;27.832;2023-01-25T00:10:17;100614.09;;;0.56;100.00
9717;BME280;4897;43.570;27.832;2023-01-25T00:12:44;100603.84;;;0.44;100.00
9717;BME280;4897;43.570;27.832;2023-01-25T00:15:11;100579.44;;;0.36;100.00
9717;BME280;4897;43.570;27.832;2023-01-25T00:17:38;100613.69;;;0.34;100.00
9717;BME280;4897;43.570;27.832;2023-01-25T00:20:07;100590.66;;;0.45;100.00
9717;BME280;4897;43.570;27.832;2023-01-25T00:22:34;100594.28;;;0.38;100.00
9717;BME280;4897;43.570;27.832;2023-01-25T00:25:01;100597.63;;;0.46;100.00
9717;BME280;4897;43.570;27.832;2023-01-25T00:27:29;100594.38;;;0.35;100.00
9717;BME280;4897;43.570;27.832;2023-01-25T00:29:56;100598.59;;;0.44;100.00
9717;BME280;4897;43.570;27.832;2023-01-25T00:32:45;100589.81;;;0.43;100.00
9717;BME280;4897;43.570;27.832;2023-01-25T00:35:13;100593.44;;;0.38;100.00
9717;BME280;4897;43.570;27.832;2023-01-25T00:37:43;100590.53;;;0.51;100.00
9717;BME280;4897;43.570;27.832;2023-01-25T00:40:14;100569.31;;;0.57;100.00
9717;BME280;4897;43.570;27.832;2023-01-25T00:42:43;100479.06;;;0.16;100.00
9717;BME280;4897;43.570;27.832;2023-01-25T00:45:10;100559.06;;;0.45;100.00
9717;BME280;4897;43.570;27.832;2023-01-25T00:47:37;100577.50;;;0.45;100.00
9717;BME280;4897;43.570;27.832;2023-01-25T00:50:05;100581.34;;;0.29;100.00
9717;BME280;4897;43.570;27.832;2023-01-25T00:52:33;100586.63;;;0.28;100.00
9717;BME280;4897;43.570;27.832;2023-01-25T00:55:00;100572.47;;;0.35;100.00
9717;BME280;4897;43.570;27.832;2023-01-25T00:57:27;100571.91;;;0.19;100.00
9717;BME280;4897;43.570;27.832;2023-01-25T00:59:55;100578.81;;;0.23;100.00
9717;BME280;4897;43.570;27.832;2023-01-25T01:02:22;100574.44;;;0.24;100.00
9717;BME280;4897;43.570;27.832;2023-01-25T01:04:49;100581.53;;;0.20;100.00
9717;BME280;4897;43.570;27.832;2023-01-25T01:07:16;100519.16;;;-0.16;100.00
9717;BME280;4897;43.570;27.832;2023-01-25T01:09:43;100578.94;;;0.17;100.00
9717;BME280;4897;43.570;27.832;2023-01-25T01:12:10;100564.78;;;0.24;100.00
9717;BME280;4897;43.570;27.832;2023-01-25T01:14:37;100582.84;;;0.41;100.00
9717;BME280;4897;43.570;27.832;2023-01-25T01:17:05;100577.53;;;0.42;100.00
9717;BME280;4897;43.570;27.832;2023-01-25T01:19:32;100573.25;;;0.38;100.00
9717;BME280;4897;43.570;27.832;2023-01-25T01:21:59;100590.50;;;0.10;100.00
9717;BME280;4897;43.570;27.832;2023-01-25T01:24:26;100580.88;;;0.09;100.00
9717;BME280;4897;43.570;27.832;2023-01-25T01:26:53;100568.47;;;0.16;100.00
9717;BME280;4897;43.570;27.832;2023-01-25T01:29:20;100570.09;;;0.21;100.00
9717;BME280;4897;43.570;27.832;2023-01-25T01:31:50;100570.22;;;0.17;100.00
9717;BME280;4897;43.570;27.832;2023-01-25T01:34:19;100567.59;;;0.15;100.00
9717;BME280;4897;43.570;27.832;2023-01-25T01:36:47;100562.38;;;0.14;100.00
9717;BME280;4897;43.570;27.832;2023-01-25T01:39:13;100569.44;;;0.12;100.00
9717;BME280;4897;43.570;27.832;2023-01-25T01:41:40;100494.94;;;-0.32;100.00
9717;BME280;4897;43.570;27.832;2023-01-25T01:44:14;100543.38;;;-0.01;100.00
9717;BME280;4897;43.570;27.832;2023-01-25T01:46:45;100539.66;;;0.10;100.00
9717;BME280;4897;43.570;27.832;2023-01-25T01:49:20;100535.28;;;0.10;100.00
9717;BME280;4897;43.570;27.832;2023-01-25T01:51:51;100578.19;;;0.12;100.00
9717;BME280;4897;43.570;27.832;2023-01-25T01:54:26;100547.56;;;0.10;100.00
9717;BME280;4897;43.570;27.832;2023-01-25T01:56:57;100532.16;;;-0.10;100.00
9717;BME280;4897;43.570;27.832;2023-01-25T01:59:27;100519.28;;;-0.22;100.00
9717;BME280;4897;43.570;27.832;2023-01-25T02:01:55;100508.84;;;-0.27;100.00
9717;BME280;4897;43.570;27.832;2023-01-25T02:04:25;100543.53;;;-0.08;100.00
9717;BME280;4897;43.570;27.832;2023-01-25T02:06:58;100558.59;;;-0.16;100.00
9717;BME280;4897;43.570;27.832;2023-01-25T02:09:26;100549.09;;;-0.25;100.00
9717;BME280;4897;43.570;27.832;2023-01-25T02:11:55;100541.22;;;-0.23;100.00
9717;BME280;4897;43.570;27.832;2023-01-25T02:14:25;100539.75;;;-0.39;100.00
9717;BME280;4897;43.570;27.832;2023-01-25T02:16:53;100539.88;;;-0.45;100.00
9717;BME280;4897;43.570;27.832;2023-01-25T02:19:29;100508.63;;;-0.60;100.00
9717;BME280;4897;43.570;27.832;2023-01-25T02:22:02;100501.53;;;-0.55;100.00
9717;BME280;4897;43.570;27.832;2023-01-25T02:24:36;100495.47;;;-0.60;100.00
9717;BME280;4897;43.570;27.832;2023-01-25T02:27:06;100504.97;;;-0.50;100.00
9717;BME280;4897;43.570;27.832;2023-01-25T02:29:34;100538.69;;;-0.28;100.00
9717;BME280;4897;43.570;27.832;2023-01-25T02:32:04;100542.06;;;-0.21;100.00
9717;BME280;4897;43.570;27.832;2023-01-25T02:34:31;100550.78;;;-0.21;100.00
9717;BME280;4897;43.570;27.832;2023-01-25T02:36:58;100521.16;;;-0.27;100.00
9717;BME280;4897;43.570;27.832;2023-01-25T02:39:26;100541.94;;;-0.17;100.00
9717;BME280;4897;43.570;27.832;2023-01-25T02:41:54;100529.13;;;-0.33;100.00
9717;BME280;4897;43.570;27.832;2023-01-25T02:44:24;100530.78;;;-0.28;100.00
9717;BME280;4897;43.570;27.832;2023-01-25T02:46:52;100538.72;;;-0.31;100.00
9717;BME280;4897;43.570;27.832;2023-01-25T02:49:19;100545.75;;;-0.33;100.00
9717;BME280;4897;43.570;27.832;2023-01-25T02:51:48;100483.34;;;-0.66;100.00
9717;BME280;4897;43.570;27.832;2023-01-25T02:54:18;100524.19;;;-0.48;100.00
9717;BME280;4897;43.570;27.832;2023-01-25T02:56:45;100523.38;;;-0.53;100.00
9717;BME280;4897;43.570;27.832;2023-01-25T02:59:12;100527.69;;;-0.49;100.00
9717;BME280;4897;43.570;27.832;2023-01-25T03:01:42;100477.41;;;-0.75;100.00
9717;BME280;4897;43.570;27.832;2023-01-25T03:04:10;100527.56;;;-0.43;100.00
9717;BME280;4897;43.570;27.832;2023-01-25T03:06:37;100497.38;;;-0.67;100.00
9717;BME280;4897;43.570;27.832;2023-01-25T03:09:06;100535.44;;;-0.43;100.00
9717;BME280;4897;43.570;27.832;2023-01-25T03:11:34;100510.25;;;-0.53;100.00
9717;BME280;4897;43.570;27.832;2023-01-25T03:14:01;100544.94;;;-0.35;100.00
9717;BME280;4897;43.570;27.832;2023-01-25T03:16:29;100539.75;;;-0.39;100.00
9717;BME280;4897;43.570;27.832;2023-01-25T03:18:58;100541.31;;;-0.29;100.00
9717;BME280;4897;43.570;27.832;2023-01-25T03:21:25;100516.22;;;-0.45;100.00
9717;BME280;4897;43.570;27.832;2023-01-25T03:23:54;100539.63;;;-0.33;100.00
9717;BME280;4897;43.570;27.832;2023-01-25T03:26:22;100545.84;;;-0.37;100.00
9717;BME280;4897;43.570;27.832;2023-01-25T03:28:49;100544.81;;;-0.27;100.00
9717;BME280;4897;43.570;27.832;2023-01-25T03:31:16;100532.78;;;-0.40;100.00
9717;BME280;4897;43.570;27.832;2023-01-25T03:33:43;100525.91;;;-0.47;100.00
9717;BME280;4897;43.570;27.832;2023-01-25T03:36:12;100505.91;;;-1.03;100.00
9717;BME280;4897;43.570;27.832;2023-01-25T03:38:39;100522.56;;;-0.55;100.00
9717;BME280;4897;43.570;27.832;2023-01-25T03:41:05;100501.75;;;-0.67;100.00
9717;BME280;4897;43.570;27.832;2023-01-25T03:43:32;100498.25;;;-0.68;100.00
9717;BME280;4897;43.570;27.832;2023-01-25T03:46:00;100526.84;;;-0.51;100.00
9717;BME280;4897;43.570;27.832;2023-01-25T03:48:28;100532.91;;;-0.46;100.00
9717;BME280;4897;43.570;27.832;2023-01-25T03:50:56;100556.34;;;-0.36;100.00
9717;BME280;4897;43.570;27.832;2023-01-25T03:53:25;100524.81;;;-0.37;100.00
9717;BME280;4897;43.570;27.832;2023-01-25T03:55:55;100532.59;;;-0.31;100.00
9717;BME280;4897;43.570;27.832;2023-01-25T03:58:22;100525.66;;;-0.35;100.00
9717;BME280;4897;43.570;27.832;2023-01-25T04:00:50;100498.75;;;-0.46;100.00
9717;BME280;4897;43.570;27.832;2023-01-25T04:03:17;100525.53;;;-0.29;100.00
9717;BME280;4897;43.570;27.832;2023-01-25T04:05:46;100526.34;;;-0.24;100.00
9717;BME280;4897;43.570;27.832;2023-01-25T04:08:13;100517.78;;;-0.35;100.00
9717;BME280;4897;43.570;27.832;2023-01-25T04:10:41;100515.97;;;-0.32;100.00
9717;BME280;4897;43.570;27.832;2023-01-25T04:13:08;100521.22;;;-0.32;100.00
9717;BME280;4897;43.570;27.832;2023-01-25T04:15:36;100526.50;;;-0.32;100.00
9717;BME280;4897;43.570;27.832;2023-01-25T04:18:03;100537.69;;;-0.22;100.00
9717;BME280;4897;43.570;27.832;2023-01-25T04:20:29;100532.28;;;-0.16;100.00
9717;BME280;4897;43.570;27.832;2023-01-25T04:22:56;100540.38;;;-0.25;100.00
9717;BME280;4897;43.570;27.832;2023-01-25T04:25:24;100545.72;;;-0.30;100.00
9717;BME280;4897;43.570;27.832;2023-01-25T04:27:52;100545.00;;;-0.39;100.00
9717;BME280;4897;43.570;27.832;2023-01-25T04:30:19;100363.03;;;-1.36;100.00
9717;BME280;4897;43.570;27.832;2023-01-25T04:32:46;100527.56;;;-0.43;100.00
9717;BME280;4897;43.570;27.832;2023-01-25T04:35:13;100534.28;;;-0.27;100.00
9717;BME280;4897;43.570;27.832;2023-01-25T04:37:40;100544.59;;;-0.18;100.00
9717;BME280;4897;43.570;27.832;2023-01-25T04:40:08;100544.72;;;-0.24;100.00
9717;BME280;4897;43.570;27.832;2023-01-25T04:42:35;100551.72;;;-0.23;100.00
9717;BME280;4897;43.570;27.832;2023-01-25T04:45:05;100535.06;;;-0.22;100.00
9717;BME280;4897;43.570;27.832;2023-01-25T04:47:32;100357.44;;;-1.18;100.00
9717;BME280;4897;43.570;27.832;2023-01-25T04:49:59;100544.34;;;-0.06;100.00
9717;BME280;4897;43.570;27.832;2023-01-25T04:52:26;100534.97;;;-0.18;100.00
9717;BME280;4897;43.570;27.832;2023-01-25T04:54:53;100549.66;;;-0.08;100.00
9717;BME280;4897;43.570;27.832;2023-01-25T04:57:19;100528.84;;;-0.18;100.00
9717;BME280;4897;43.570;27.832;2023-01-25T04:59:46;100547.94;;;-0.09;100.00
9717;BME280;4897;43.570;27.832;2023-01-25T05:02:15;100544.44;;;-0.09;100.00
9717;BME280;4897;43.570;27.832;2023-01-25T05:04:41;100549.63;;;-0.06;100.00
9717;BME280;4897;43.570;27.832;2023-01-25T05:07:08;100392.09;;;-1.01;100.00
9717;BME280;4897;43.570;27.832;2023-01-25T05:09:35;100546.91;;;0.00;100.00
9717;BME280;4897;43.570;27.832;2023-01-25T05:12:03;100545.94;;;0.04;100.00
9717;BME280;4897;43.570;27.832;2023-01-25T05:14:36;100537.22;;;0.02;100.00
9717;BME280;4897;43.570;27.832;2023-01-25T05:17:03;100512.72;;;0.00;100.00
9717;BME280;4897;43.570;27.832;2023-01-25T05:19:31;100545.72;;;0.13;100.00
9717;BME280;4897;43.570;27.832;2023-01-25T05:21:58;100522.44;;;-0.05;100.00
9717;BME280;4897;43.570;27.832;2023-01-25T05:24:26;100535.41;;;0.04;100.00
9717;BME280;4897;43.570;27.832;2023-01-25T05:26:54;100551.81;;;0.17;100.00
9717;BME280;4897;43.570;27.832;2023-01-25T05:29:26;100543.09;;;0.15;100.00
9717;BME280;4897;43.570;27.832;2023-01-25T05:31:53;100527.63;;;-0.02;100.00
9717;BME280;4897;43.570;27.832;2023-01-25T05:34:20;100530.16;;;0.04;100.00
9717;BME280;4897;43.570;27.832;2023-01-25T05:36:48;100510.22;;;-0.08;100.00
9717;BME280;4897;43.570;27.832;2023-01-25T05:39:15;100544.75;;;0.17;100.00
9717;BME280;4897;43.570;27.832;2023-01-25T05:41:44;100549.19;;;0.15;100.00
9717;BME280;4897;43.570;27.832;2023-01-25T05:44:11;100538.75;;;0.12;100.00
9717;BME280;4897;43.570;27.832;2023-01-25T05:46:38;100536.13;;;0.11;100.00
9717;BME280;4897;43.570;27.832;2023-01-25T05:49:05;100525.88;;;-0.02;100.00
9717;BME280;4897;43.570;27.832;2023-01-25T05:51:32;100558.00;;;0.14;100.00
9717;BME280;4897;43.570;27.832;2023-01-25T05:54:02;100561.47;;;0.16;100.00
9717;BME280;4897;43.570;27.832;2023-01-25T05:56:28;100534.59;;;0.00;100.00
9717;BME280;4897;43.570;27.832;2023-01-25T05:58:57;100556.31;;;0.10;100.00
9717;BME280;4897;43.570;27.832;2023-01-25T06:01:24;100563.09;;;0.22;100.00
9717;BME280;4897;43.570;27.832;2023-01-25T06:03:51;100568.31;;;0.23;100.00
9717;BME280;4897;43.570;27.832;2023-01-25T06:06:19;100544.94;;;0.10;100.00
9717;BME280;4897;43.570;27.832;2023-01-25T06:08:46;100541.44;;;0.09;100.00
9717;BME280;4897;43.570;27.832;2023-01-25T06:11:16;100572.09;;;0.09;100.00
9717;BME280;4897;43.570;27.832;2023-01-25T06:13:44;100487.25;;;0.00;100.00
9717;BME280;4897;43.570;27.832;2023-01-25T06:16:11;100559.41;;;0.30;100.00
9717;BME280;4897;43.570;27.832;2023-01-25T06:18:39;100569.97;;;0.27;100.00
9717;BME280;4897;43.570;27.832;2023-01-25T06:21:05;100564.59;;;0.33;100.00
9717;BME280;4897;43.570;27.832;2023-01-25T06:23:32;100586.84;;;0.19;100.00
9717;BME280;4897;43.570;27.832;2023-01-25T06:26:00;100553.34;;;0.25;100.00
9717;BME280;4897;43.570;27.832;2023-01-25T06:28:34;100552.41;;;0.29;100.00
9717;BME280;4897;43.570;27.832;2023-01-25T06:31:06;100557.72;;;0.26;100.00
9717;BME280;4897;43.570;27.832;2023-01-25T06:33:34;100524.16;;;-0.03;100.00
9717;BME280;4897;43.570;27.832;2023-01-25T06:36:02;100549.53;;;0.00;100.00
9717;BME280;4897;43.570;27.832;2023-01-25T06:38:32;100574.38;;;0.27;100.00
9717;BME280;4897;43.570;27.832;2023-01-25T06:41:00;100564.97;;;0.15;100.00
9717;BME280;4897;43.570;27.832;2023-01-25T06:43:27;100555.50;;;0.07;100.00
9717;BME280;4897;43.570;27.832;2023-01-25T06:46:00;100568.41;;;0.19;100.00
9717;BME280;4897;43.570;27.832;2023-01-25T06:48:28;100546.16;;;-0.08;100.00
9717;BME280;4897;43.570;27.832;2023-01-25T06:50:56;100584.47;;;0.05;100.00
9717;BME280;4897;43.570;27.832;2023-01-25T06:53:25;100506.56;;;-0.43;100.00
9717;BME280;4897;43.570;27.832;2023-01-25T06:55:59;100584.72;;;-0.07;100.00
9717;BME280;4897;43.570;27.832;2023-01-25T06:58:28;100583.59;;;0.06;100.00
9717;BME280;4897;43.570;27.832;2023-01-25T07:01:02;100560.09;;;-0.03;100.00
9717;BME280;4897;43.570;27.832;2023-01-25T07:03:30;100567.00;;;0.01;100.00
9717;BME280;4897;43.570;27.832;2023-01-25T07:05:58;100582.53;;;0.13;100.00
9717;BME280;4897;43.570;27.832;2023-01-25T07:08:25;100561.53;;;0.12;100.00
9717;BME280;4897;43.570;27.832;2023-01-25T07:10:54;100578.44;;;0.00;100.00
9717;BME280;4897;43.570;27.832;2023-01-25T07:13:22;100450.84;;;-0.60;100.00
9717;BME280;4897;43.570;27.832;2023-01-25T07:15:53;100572.81;;;0.18;100.00
9717;BME280;4897;43.570;27.832;2023-01-25T07:18:22;100601.44;;;0.33;100.00
9717;BME280;4897;43.570;27.832;2023-01-25T07:20:49;100580.16;;;0.44;100.00
9717;BME280;4897;43.570;27.832;2023-01-25T07:23:17;100546.44;;;0.21;100.00
9717;BME280;4897;43.570;27.832;2023-01-25T07:25:44;100583.13;;;0.27;100.00
9717;BME280;4897;43.570;27.832;2023-01-25T07:28:12;100596.03;;;0.39;100.00
9717;BME280;4897;43.570;27.832;2023-01-25T07:30:39;100554.97;;;0.32;100.00
9717;BME280;4897;43.570;27.832;2023-01-25T07:33:07;100581.00;;;0.46;100.00
9717;BME280;4897;43.570;27.832;2023-01-25T07:35:36;100544.41;;;0.35;100.00
9717;BME280;4897;43.570;27.832;2023-01-25T07:38:06;100571.44;;;0.40;100.00
9717;BME280;4897;43.570;27.832;2023-01-25T07:40:33;100570.47;;;0.46;100.00
9717;BME280;4897;43.570;27.832;2023-01-25T07:43:03;100565.22;;;0.44;100.00
9717;BME280;4897;43.570;27.832;2023-01-25T07:45:30;100558.38;;;0.36;100.00
9717;BME280;4897;43.570;27.832;2023-01-25T07:47:57;100565.03;;;0.53;100.00
9717;BME280;4897;43.570;27.832;2023-01-25T07:50:25;100584.88;;;0.68;100.00
9717;BME280;4897;43.570;27.832;2023-01-25T07:52:54;100524.31;;;0.31;100.00
9717;BME280;4897;43.570;27.832;2023-01-25T07:55:21;100592.03;;;0.61;100.00
9717;BME280;4897;43.570;27.832;2023-01-25T07:57:53;100586.75;;;0.63;100.00
9717;BME280;4897;43.570;27.832;2023-01-25T08:00:20;100595.38;;;0.69;100.00
9717;BME280;4897;43.570;27.832;2023-01-25T08:02:49;100582.25;;;0.68;100.00
9717;BME280;4897;43.570;27.832;2023-01-25T08:05:16;100586.97;;;0.52;100.00
9717;BME280;4897;43.570;27.832;2023-01-25T08:07:42;100553.31;;;0.28;100.00
9717;BME280;4897;43.570;27.832;2023-01-25T08:10:11;100579.94;;;0.53;100.00
9717;BME280;4897;43.570;27.832;2023-01-25T08:12:38;100597.59;;;0.49;100.00
9717;BME280;4897;43.570;27.832;2023-01-25T08:15:06;100576.56;;;0.46;100.00
9717;BME280;4897;43.570;27.832;2023-01-25T08:17:33;100573.81;;;0.52;100.00
9717;BME280;4897;43.570;27.832;2023-01-25T08:20:00;100567.09;;;0.39;100.00
9717;BME280;4897;43.570;27.832;2023-01-25T08:22:29;100549.44;;;0.46;100.00
9717;BME280;4897;43.570;27.832;2023-01-25T08:24:55;100581.94;;;0.43;100.00
9717;BME280;4897;43.570;27.832;2023-01-25T08:27:28;100471.13;;;-0.24;100.00
9717;BME280;4897;43.570;27.832;2023-01-25T08:29:54;100584.47;;;0.46;100.00
9717;BME280;4897;43.570;27.832;2023-01-25T08:32:22;100574.13;;;0.39;100.00
9717;BME280;4897;43.570;27.832;2023-01-25T08:34:48;100617.75;;;0.49;100.00
9717;BME280;4897;43.570;27.832;2023-01-25T08:37:18;100548.00;;;0.31;100.00
9717;BME280;4897;43.570;27.832;2023-01-25T08:39:48;100581.59;;;0.58;100.00
9717;BME280;4897;43.570;27.832;2023-01-25T08:42:17;100596.00;;;0.80;100.00
9717;BME280;4897;43.570;27.832;2023-01-25T08:44:45;100600.88;;;0.97;100.00
9717;BME280;4897;43.570;27.832;2023-01-25T08:47:12;100573.69;;;0.97;100.00
9717;BME280;4897;43.570;27.832;2023-01-25T08:49:39;100569.75;;;0.77;100.00
9717;BME280;4897;43.570;27.832;2023-01-25T08:52:06;100588.69;;;0.93;100.00
9717;BME280;4897;43.570;27.832;2023-01-25T08:54:33;100570.31;;;0.92;100.00
9717;BME280;4897;43.570;27.832;2023-01-25T08:57:00;100586.34;;;1.18;100.00
9717;BME280;4897;43.570;27.832;2023-01-25T08:59:28;100534.03;;;1.03;100.00
9717;BME280;4897;43.570;27.832;2023-01-25T09:01:58;100590.09;;;1.43;100.00
9717;BME280;4897;43.570;27.832;2023-01-25T09:04:25;100582.94;;;1.13;100.00
9717;BME280;4897;43.570;27.832;2023-01-25T09:06:53;100571.53;;;1.14;100.00
9717;BME280;4897;43.570;27.832;2023-01-25T09:09:20;100545.38;;;1.05;100.00
9717;BME280;4897;43.570;27.832;2023-01-25T09:11:49;100581.59;;;1.32;100.00
9717;BME280;4897;43.570;27.832;2023-01-25T09:14:16;100572.72;;;1.36;100.00
9717;BME280;4897;43.570;27.832;2023-01-25T09:16:43;100558.00;;;1.27;100.00
9717;BME280;4897;43.570;27.832;2023-01-25T09:19:12;100565.19;;;1.54;100.00
9717;BME280;4897;43.570;27.832;2023-01-25T09:21:39;100546.88;;;1.50;100.00
9717;BME280;4897;43.570;27.832;2023-01-25T09:24:07;100566.88;;;1.57;100.00
9717;BME280;4897;43.570;27.832;2023-01-25T09:26:35;100547.88;;;1.46;100.00
9717;BME280;4897;43.570;27.832;2023-01-25T09:29:03;100545.06;;;1.52;100.00
9717;BME280;4897;43.570;27.832;2023-01-25T09:31:32;100518.34;;;1.32;100.00
9717;BME280;4897;43.570;27.832;2023-01-25T09:33:59;100540.78;;;1.48;100.00
9717;BME280;4897;43.570;27.832;2023-01-25T09:36:28;100543.66;;;1.39;100.00
9717;BME280;4897;43.570;27.832;2023-01-25T09:38:55;100524.44;;;1.00;100.00
9717;BME280;4897;43.570;27.832;2023-01-25T09:41:32;100541.66;;;1.15;100.00
9717;BME280;4897;43.570;27.832;2023-01-25T09:44:16;100538.88;;;1.19;100.00
9717;BME280;4897;43.570;27.832;2023-01-25T09:46:52;100530.31;;;1.11;100.00
9717;BME280;4897;43.570;27.832;2023-01-25T09:49:40;100525.84;;;1.15;100.00
9717;BME280;4897;43.570;27.832;2023-01-25T09:52:23;100527.34;;;1.25;100.00
9717;BME280;4897;43.570;27.832;2023-01-25T09:54:56;100525.38;;;1.33;100.00
9717;BME280;4897;43.570;27.832;2023-01-25T09:57:27;100511.75;;;1.16;100.00
9717;BME280;4897;43.570;27.832;2023-01-25T09:59:56;100515.38;;;1.12;100.00
9717;BME280;4897;43.570;27.832;2023-01-25T10:02:34;100516.66;;;1.31;100.00
9717;BME280;4897;43.570;27.832;2023-01-25T10:05:09;100517.97;;;1.47;100.00
9717;BME280;4897;43.570;27.832;2023-01-25T10:07:49;100514.00;;;1.63;100.00
9717;BME280;4897;43.570;27.832;2023-01-25T10:10:20;100506.91;;;1.65;100.00
9717;BME280;4897;43.570;27.832;2023-01-25T10:12:50;100405.06;;;1.32;100.00
9717;BME280;4897;43.570;27.832;2023-01-25T10:15:18;100495.94;;;1.80;100.00
9717;BME280;4897;43.570;27.832;2023-01-25T10:17:53;100506.44;;;1.83;100.00
9717;BME280;4897;43.570;27.832;2023-01-25T10:20:28;100488.56;;;2.22;100.00
9717;BME280;4897;43.570;27.832;2023-01-25T10:23:22;100489.88;;;2.07;100.00
9717;BME280;4897;43.570;27.832;2023-01-25T10:25:56;100482.97;;;2.03;100.00
9717;BME280;4897;43.570;27.832;2023-01-25T10:28:31;100486.97;;;1.87;100.00
9717;BME280;4897;43.570;27.832;2023-01-25T10:31:06;100474.22;;;1.72;100.00
9717;BME280;4897;43.570;27.832;2023-01-25T10:33:39;100476.41;;;1.87;100.00
9717;BME280;4897;43.570;27.832;2023-01-25T10:36:13;100478.41;;;1.79;100.00
9717;BME280;4897;43.570;27.832;2023-01-25T10:38:43;100485.66;;;1.71;100.00
9717;BME280;4897;43.570;27.832;2023-01-25T10:41:15;100472.31;;;1.77;100.00
9717;BME280;4897;43.570;27.832;2023-01-25T10:43:44;100466.31;;;1.72;100.00
9717;BME280;4897;43.570;27.832;2023-01-25T10:46:18;100476.31;;;1.59;100.00
9717;BME280;4897;43.570;27.832;2023-01-25T10:48:46;100435.19;;;1.54;100.00
9717;BME280;4897;43.570;27.832;2023-01-25T10:51:28;100451.75;;;1.88;100.00
9717;BME280;4897;43.570;27.832;2023-01-25T10:54:01;100461.19;;;1.97;100.00
9717;BME280;4897;43.570;27.832;2023-01-25T10:56:31;100443.13;;;1.83;100.00
9717;BME280;4897;43.570;27.832;2023-01-25T10:59:13;100450.31;;;1.78;100.00
9717;BME280;4897;43.570;27.832;2023-01-25T11:01:41;100434.84;;;1.66;100.00
9717;BME280;4897;43.570;27.832;2023-01-25T11:04:31;100432.06;;;1.71;100.00
9717;BME280;4897;43.570;27.832;2023-01-25T11:07:00;100438.47;;;1.62;100.00
9717;BME280;4897;43.570;27.832;2023-01-25T11:09:36;100423.47;;;1.64;100.00
9717;BME280;4897;43.570;27.832;2023-01-25T11:12:15;100354.63;;;1.15;100.00
9717;BME280;4897;43.570;27.832;2023-01-25T11:14:43;100390.34;;;1.25;100.00
9717;BME280;4897;43.570;27.832;2023-01-25T11:17:23;100428.53;;;1.41;100.00
9717;BME280;4897;43.570;27.832;2023-01-25T11:20:13;100374.25;;;1.03;100.00
9717;BME280;4897;43.570;27.832;2023-01-25T11:22:49;100414.53;;;1.39;100.00
9717;BME280;4897;43.570;27.832;2023-01-25T11:25:29;100413.94;;;1.60;100.00
9717;BME280;4897;43.570;27.832;2023-01-25T11:28:23;100418.09;;;1.67;100.00
9717;BME280;4897;43.570;27.832;2023-01-25T11:30:51;100410.19;;;1.67;100.00
9717;BME280;4897;43.570;27.832;2023-01-25T11:33:20;100427.56;;;1.74;100.00
9717;BME280;4897;43.570;27.832;2023-01-25T11:36:11;100400.94;;;1.83;100.00
9717;BME280;4897;43.570;27.832;2023-01-25T11:38:49;100395.06;;;1.74;100.00
9717;BME280;4897;43.570;27.832;2023-01-25T11:41:25;100397.50;;;1.80;100.00
9717;BME280;4897;43.570;27.832;2023-01-25T11:44:06;100392.66;;;1.66;100.00
9717;BME280;4897;43.570;27.832;2023-01-25T11:46:42;100389.91;;;1.69;100.00
9717;BME280;4897;43.570;27.832;2023-01-25T11:49:26;100375.66;;;1.47;100.00
9717;BME280;4897;43.570;27.832;2023-01-25T11:52:04;100376.50;;;1.47;100.00
9717;BME280;4897;43.570;27.832;2023-01-25T11:54:43;100365.28;;;1.41;100.00
9717;BME280;4897;43.570;27.832;2023-01-25T12:00:24;100377.22;;;1.54;100.00
9717;BME280;4897;43.570;27.832;2023-01-25T12:03:20;100383.75;;;1.70;100.00
9717;BME280;4897;43.570;27.832;2023-01-25T12:05:59;100381.97;;;1.40;100.00
9717;BME280;4897;43.570;27.832;2023-01-25T12:08:45;100349.41;;;1.44;100.00
9717;BME280;4897;43.570;27.832;2023-01-25T12:11:28;100386.28;;;1.44;100.00
9717;BME280;4897;43.570;27.832;2023-01-25T12:14:07;100371.69;;;1.61;100.00
9717;BME280;4897;43.570;27.832;2023-01-25T12:16:56;100378.66;;;1.64;100.00
9717;BME280;4897;43.570;27.832;2023-01-25T12:19:59;100355.75;;;1.37;100.00
9717;BME280;4897;43.570;27.832;2023-01-25T12:22:40;100363.72;;;1.34;100.00
9717;BME280;4897;43.570;27.832;2023-01-25T12:25:20;100361.91;;;1.36;100.00
9717;BME280;4897;43.570;27.832;2023-01-25T12:28:01;100343.28;;;1.42;100.00
9717;BME280;4897;43.570;27.832;2023-01-25T12:30:44;100361.28;;;1.57;100.00
9717;BME280;4897;43.570;27.832;2023-01-25T12:33:19;100331.59;;;1.52;100.00
9717;BME280;4897;43.570;27.832;2023-01-25T12:35:52;100341.00;;;1.60;100.00
9717;BME280;4897;43.570;27.832;2023-01-25T12:38:25;100349.84;;;1.58;100.00
9717;BME280;4897;43.570;27.832;2023-01-25T12:40:58;100331.25;;;1.33;100.00
9717;BME280;4897;43.570;27.832;2023-01-25T12:43:30;100353.44;;;1.55;100.00
9717;BME280;4897;43.570;27.832;2023-01-25T12:46:09;100277.13;;;1.22;100.00
9717;BME280;4897;43.570;27.832;2023-01-25T12:48:40;100347.03;;;1.64;100.00
9717;BME280;4897;43.570;27.832;2023-01-25T12:51:11;100314.13;;;1.48;100.00
9717;BME280;4897;43.570;27.832;2023-01-25T12:53:41;100350.38;;;1.69;100.00
9717;BME280;4897;43.570;27.832;2023-01-25T12:56:24;100330.84;;;1.76;100.00
9717;BME280;4897;43.570;27.832;2023-01-25T12:58:58;100303.97;;;1.63;100.00
9717;BME280;4897;43.570;27.832;2023-01-25T13:01:32;100349.22;;;1.78;100.00
9717;BME280;4897;43.570;27.832;2023-01-25T13:04:18;100321.63;;;1.61;100.00
9717;BME280;4897;43.570;27.832;2023-01-25T13:06:53;100350.75;;;1.57;100.00
9717;BME280;4897;43.570;27.832;2023-01-25T13:09:27;100332.41;;;1.54;100.00
9717;BME280;4897;43.570;27.832;2023-01-25T13:11:56;100352.16;;;1.69;100.00
9717;BME280;4897;43.570;27.832;2023-01-25T13:14:27;100351.28;;;1.68;100.00
9717;BME280;4897;43.570;27.832;2023-01-25T13:17:16;100319.53;;;1.71;100.00